Time;durP1;ratioP1;P1;durP2;ratioP2;P2;SDS_P1;SDS_P2;PMS_P1;PMS_P2;Temp;Humidity;BMP_temperature;BMP_pressure;BME280_temperature;BME280_humidity;BME280_pressure;Samples;Min_cycle;Max_cycle;Signal;HPM_P1;HPM_P2
2022/08/06 00:02:23;;;;;;;4.40;3.20;;;;;;;24.96;46.54;99564.63;4426045;32;34087;-84
2022/08/06 00:04:57;;;;;;;4.10;3.40;;;;;;;24.97;46.54;99560.91;4423654;32;34487;-84
2022/08/06 00:07:25;;;;;;;3.47;3.17;;;;;;;24.79;47.11;99558.34;4435562;32;33015;-84
2022/08/06 00:09:56;;;;;;;5.70;3.67;;;;;;;24.80;46.98;99567.28;4423457;32;33294;-84
2022/08/06 00:12:30;;;;;;;5.20;3.25;;;;;;;24.65;47.46;99572.47;4422543;32;34532;-85
2022/08/06 00:15:04;;;;;;;3.10;2.80;;;;;;;24.68;47.23;99564.88;4423924;32;33094;-84
2022/08/06 00:17:42;;;;;;;7.30;3.55;;;;;;;24.76;47.07;99573.00;4427403;32;34085;-85
2022/08/06 00:20:12;;;;;;;5.40;3.40;;;;;;;24.73;47.37;99573.31;4423654;32;33692;-84
2022/08/06 00:22:59;;;;;;;4.32;3.00;;;;;;;24.67;47.33;99574.00;4416633;32;32807;-85
2022/08/06 00:25:30;;;;;;;6.75;3.80;;;;;;;24.74;47.21;99566.94;4423430;32;33578;-84
2022/08/06 00:28:20;;;;;;;8.10;3.67;;;;;;;24.66;47.51;99564.19;4419441;32;212199;-84
2022/08/06 00:31:00;;;;;;;4.80;3.17;;;;;;;24.49;47.81;99573.22;4411807;32;32979;-84
2022/08/06 00:33:39;;;;;;;5.20;2.95;;;;;;;24.60;47.15;99575.66;4412378;32;32950;-85
2022/08/06 00:36:27;;;;;;;5.12;3.20;;;;;;;24.63;47.26;99572.63;4417568;32;33734;-85
2022/08/06 00:39:03;;;;;;;4.18;3.08;;;;;;;24.55;47.00;99571.75;4423138;32;33249;-85
2022/08/06 00:41:37;;;;;;;9.35;3.53;;;;;;;24.48;47.42;99568.84;4411312;32;32820;-84
2022/08/06 00:44:13;;;;;;;5.12;3.42;;;;;;;24.49;47.50;99575.94;4434232;32;34636;-84
2022/08/06 00:46:42;;;;;;;3.40;3.10;;;;;;;24.43;47.49;99576.59;4423862;32;33669;-84
2022/08/06 00:49:12;;;;;;;5.00;3.25;;;;;;;24.32;47.71;99587.63;4435715;32;32576;-84
2022/08/06 00:52:00;;;;;;;4.97;2.90;;;;;;;24.37;47.52;99577.25;4425076;32;32969;-84
2022/08/06 00:54:31;;;;;;;8.25;3.17;;;;;;;24.32;47.55;99571.44;4423574;32;32592;-85
2022/08/06 00:57:04;;;;;;;6.78;3.08;;;;;;;24.14;47.98;99566.97;4425202;32;34291;-84
2022/08/06 00:59:38;;;;;;;6.45;3.47;;;;;;;24.26;47.68;99568.38;4423637;32;33497;-84
2022/08/06 01:02:08;;;;;;;4.62;3.20;;;;;;;24.21;47.88;99568.03;4422870;32;34701;-84
2022/08/06 01:04:37;;;;;;;6.53;3.42;;;;;;;24.21;47.76;99561.75;4429652;32;33569;-84
2022/08/06 01:07:05;;;;;;;5.53;3.67;;;;;;;24.15;47.89;99567.81;4409530;32;33202;-84
2022/08/06 01:09:39;;;;;;;4.65;2.78;;;;;;;24.24;47.50;99564.97;4410596;32;34530;-84
2022/08/06 01:12:26;;;;;;;2.97;2.75;;;;;;;24.22;47.31;99569.72;4425089;32;33775;-84
2022/08/06 01:15:05;;;;;;;3.53;2.90;;;;;;;24.19;47.52;99556.53;4411093;32;32962;-84
2022/08/06 01:18:04;;;;;;;11.00;3.70;;;;;;;24.18;47.92;99562.94;4410862;32;34071;-84
2022/08/06 01:20:52;;;;;;;4.80;3.10;;;;;;;24.19;48.32;99559.22;4410195;32;32336;-84
2022/08/06 01:23:48;;;;;;;5.80;2.97;;;;;;;24.20;47.80;99554.66;4424799;32;34263;-84
2022/08/06 01:26:36;;;;;;;4.93;3.33;;;;;;;24.15;47.61;99563.25;4434076;32;33923;-84
2022/08/06 01:29:05;;;;;;;4.22;3.70;;;;;;;24.09;48.02;99558.50;4421748;32;33780;-84
2022/08/06 01:32:04;;;;;;;4.78;3.25;;;;;;;24.09;48.53;99558.50;4423974;32;33232;-84
2022/08/06 01:34:52;;;;;;;3.33;3.05;;;;;;;23.92;48.32;99562.09;4423757;32;33811;-84
2022/08/06 01:37:27;;;;;;;4.22;3.15;;;;;;;23.92;48.55;99562.09;4435665;32;33700;-84
2022/08/06 01:40:10;;;;;;;4.25;3.28;;;;;;;23.97;48.25;99565.16;4413656;32;32836;-84
2022/08/06 01:42:40;;;;;;;4.22;3.55;;;;;;;23.89;48.38;99563.25;4421809;32;33024;-84
2022/08/06 01:45:15;;;;;;;4.07;3.22;;;;;;;23.80;48.53;99566.06;4421355;32;33260;-84
2022/08/06 01:47:47;;;;;;;4.50;3.08;;;;;;;23.82;48.07;99564.88;4407925;32;34168;-85
2022/08/06 01:50:33;;;;;;;8.95;3.40;;;;;;;23.72;47.96;99567.69;4415930;32;33088;-85
2022/08/06 01:53:04;;;;;;;5.12;3.15;;;;;;;23.63;47.99;99565.87;4421918;32;32643;-84
2022/08/06 01:55:45;;;;;;;4.00;3.25;;;;;;;23.62;48.25;99561.50;4422668;32;34449;-84
2022/08/06 01:58:33;;;;;;;9.75;3.85;;;;;;;23.71;48.05;99565.16;4423531;32;33430;-84
2022/08/06 02:01:06;;;;;;;6.87;3.37;;;;;;;23.84;47.88;99559.34;4422118;32;33887;-85
2022/08/06 02:03:41;;;;;;;3.35;3.03;;;;;;;23.79;48.18;99558.97;4421398;32;34231;-84
2022/08/06 02:06:32;;;;;;;6.62;3.22;;;;;;;23.94;47.24;99562.78;4419550;32;33543;-84
2022/08/06 02:09:08;;;;;;;3.75;3.45;;;;;;;23.74;47.96;99560.28;4409553;32;34458;-84
2022/08/06 02:11:56;;;;;;;5.32;3.00;;;;;;;23.74;48.24;99560.28;4413731;32;33047;-84
2022/08/06 02:14:34;;;;;;;5.78;3.37;;;;;;;23.67;48.54;99564.59;4424047;32;32409;-85
2022/08/06 02:17:03;;;;;;;3.28;3.00;;;;;;;23.55;48.72;99571.22;4411079;32;34335;-84
2022/08/06 02:19:47;;;;;;;6.68;3.12;;;;;;;23.37;49.63;99567.69;4429398;32;34713;-84
2022/08/06 02:22:37;;;;;;;5.93;3.35;;;;;;;23.54;48.89;99558.75;4408087;32;34246;-85
2022/08/06 02:25:08;;;;;;;5.90;3.60;;;;;;;23.45;49.11;99570.44;4410936;32;34836;-84
2022/08/06 02:27:53;;;;;;;3.28;2.97;;;;;;;23.53;49.00;99557.06;4426541;32;34060;-84
2022/08/06 02:30:31;;;;;;;3.67;3.35;;;;;;;23.57;48.92;99568.38;4424363;32;32627;-84
2022/08/06 02:33:05;;;;;;;8.02;3.70;;;;;;;23.48;49.71;99570.16;4422832;32;33782;-84
2022/08/06 02:35:44;;;;;;;4.72;3.85;;;;;;;23.51;49.61;99561.75;4424751;32;33334;-84
2022/08/06 02:38:27;;;;;;;3.72;3.37;;;;;;;23.46;49.92;99569.47;4425250;32;34119;-84
2022/08/06 02:41:15;;;;;;;4.22;3.72;;;;;;;23.50;49.68;99571.69;4411832;32;34017;-84
2022/08/06 02:43:51;;;;;;;5.00;3.40;;;;;;;23.45;49.76;99570.44;4411093;32;32679;-84
2022/08/06 02:46:27;;;;;;;5.00;3.87;;;;;;;23.43;49.82;99567.06;4411436;32;32423;-84
2022/08/06 02:49:03;;;;;;;4.68;3.33;;;;;;;23.17;50.58;99572.41;4422838;32;32514;-84
2022/08/06 02:51:46;;;;;;;5.07;3.92;;;;;;;23.31;50.06;99568.28;4423023;32;33750;-85
2022/08/06 02:54:52;;;;;;;4.30;3.50;;;;;;;23.26;50.05;99566.06;4421631;32;33867;-84
2022/08/06 02:57:33;;;;;;;4.55;4.00;;;;;;;23.25;50.52;99567.06;4411045;32;32266;-85
2022/08/06 03:00:20;;;;;;;4.22;3.67;;;;;;;23.15;51.20;99561.75;4425291;32;34519;-85
2022/08/06 03:02:58;;;;;;;6.87;3.83;;;;;;;23.09;51.35;99565.06;4421770;32;32869;-84
2022/08/06 03:05:29;;;;;;;4.28;3.15;;;;;;;23.18;51.00;99560.63;4423853;32;33030;-84
2022/08/06 03:08:22;;;;;;;4.80;3.35;;;;;;;23.09;51.32;99570.47;4423967;32;33214;-84
2022/08/06 03:10:55;;;;;;;5.57;3.65;;;;;;;23.06;51.18;99576.13;4411871;32;33655;-84
2022/08/06 03:13:23;;;;;;;5.72;4.30;;;;;;;22.98;51.30;99562.62;4410889;32;33496;-84
2022/08/06 03:16:04;;;;;;;4.72;3.55;;;;;;;22.98;51.30;99573.38;4422773;32;33199;-84
2022/08/06 03:18:52;;;;;;;6.00;4.30;;;;;;;23.00;51.25;99571.38;4429087;32;33154;-85
2022/08/06 03:21:43;;;;;;;5.15;3.30;;;;;;;22.91;51.96;99566.91;4427323;32;34198;-84
2022/08/06 03:24:23;;;;;;;4.17;3.77;;;;;;;22.75;52.45;99568.38;4417698;32;33321;-85
2022/08/06 03:26:56;;;;;;;5.40;3.97;;;;;;;22.63;52.55;99569.56;4422720;32;32911;-85
2022/08/06 03:29:25;;;;;;;4.75;3.95;;;;;;;22.78;52.22;99571.75;4422169;32;32398;-85
2022/08/06 03:31:55;;;;;;;5.00;3.92;;;;;;;22.75;52.31;99576.44;4424156;32;33516;-85
2022/08/06 03:34:28;;;;;;;8.13;4.28;;;;;;;22.78;52.62;99583.38;4423204;32;33232;-85
2022/08/06 03:37:00;;;;;;;7.10;4.37;;;;;;;22.82;52.47;99583.91;4423652;32;34157;-84
2022/08/06 03:39:30;;;;;;;6.00;4.45;;;;;;;22.56;53.31;99584.63;4424404;32;33103;-84
2022/08/06 03:42:02;;;;;;;5.78;4.10;;;;;;;22.68;53.19;99575.34;4411271;32;33301;-84
2022/08/06 03:44:36;;;;;;;8.13;4.20;;;;;;;22.70;53.06;99576.06;4412160;32;33408;-84
2022/08/06 03:47:19;;;;;;;8.20;3.65;;;;;;;22.74;53.17;99572.06;4430076;32;33450;-84
2022/08/06 03:50:14;;;;;;;4.87;4.35;;;;;;;22.82;52.86;99574.00;4425245;32;33383;-85
2022/08/06 03:52:46;;;;;;;6.12;3.97;;;;;;;22.75;52.38;99575.59;4424717;32;33942;-84
2022/08/06 03:55:23;;;;;;;7.82;4.45;;;;;;;22.84;51.97;99576.56;4424394;32;33888;-84
2022/08/06 03:58:03;;;;;;;9.25;3.87;;;;;;;22.72;53.12;99575.91;4410804;32;32247;-85
2022/08/06 04:03:17;;;;;;;4.32;3.92;;;;;;;22.95;52.22;99574.50;4412165;32;32428;-84
2022/08/06 04:05:48;;;;;;;6.75;3.80;;;;;;;22.97;51.70;99574.34;4404110;32;33092;-85
2022/08/06 04:08:20;;;;;;;5.03;4.10;;;;;;;22.96;51.91;99572.66;4424004;32;33807;-84
2022/08/06 04:10:48;;;;;;;5.55;4.03;;;;;;;23.10;51.13;99572.16;4423643;32;33607;-84
2022/08/06 04:13:25;;;;;;;4.85;3.55;;;;;;;23.10;50.69;99588.31;4423562;32;32725;-85
2022/08/06 04:16:14;;;;;;;4.60;3.80;;;;;;;23.50;49.93;99584.31;4425931;32;34515;-85
2022/08/06 04:19:06;;;;;;;4.60;4.10;;;;;;;23.45;50.37;99592.00;4413860;32;33009;-84
2022/08/06 04:21:36;;;;;;;9.00;4.40;;;;;;;23.46;50.74;99594.56;4423443;32;33134;-84
2022/08/06 04:24:25;;;;;;;7.85;4.12;;;;;;;23.39;51.27;99598.00;4425956;32;34536;-85
2022/08/06 04:27:02;;;;;;;9.23;4.45;;;;;;;23.36;51.40;99603.69;4415445;32;34119;-85
2022/08/06 04:29:37;;;;;;;7.82;4.18;;;;;;;23.75;50.35;99597.03;4423151;32;32993;-84
2022/08/06 04:32:26;;;;;;;9.80;5.28;;;;;;;23.43;52.51;99599.41;4412880;32;33301;-84
2022/08/06 04:35:03;;;;;;;6.15;5.03;;;;;;;23.61;50.94;99602.94;4423883;32;34314;-84
2022/08/06 04:37:51;;;;;;;5.55;4.32;;;;;;;23.62;51.31;99593.84;4425711;32;32485;-85
2022/08/06 04:40:21;;;;;;;7.20;4.32;;;;;;;23.93;50.78;99597.00;4422604;32;34068;-85
2022/08/06 04:43:05;;;;;;;8.70;4.23;;;;;;;24.21;50.21;99597.69;4423053;32;32632;-85
2022/08/06 04:45:36;;;;;;;8.75;3.75;;;;;;;24.21;51.26;99600.41;4409332;32;33399;-84
2022/08/06 04:48:24;;;;;;;6.47;4.40;;;;;;;24.45;49.78;99606.94;4425016;32;33597;-85
2022/08/06 04:50:54;;;;;;;7.93;4.60;;;;;;;24.38;49.76;99612.16;4423350;32;33611;-85
2022/08/06 04:53:23;;;;;;;5.18;4.30;;;;;;;24.81;49.39;99614.88;4410586;32;33681;-85
2022/08/06 04:56:11;;;;;;;5.70;3.53;;;;;;;24.79;50.22;99625.84;4425866;32;32434;-85
2022/08/06 04:58:45;;;;;;;4.75;3.70;;;;;;;24.86;47.81;99620.63;4423355;32;34002;-84
2022/08/06 05:01:13;;;;;;;5.87;4.20;;;;;;;24.75;49.65;99622.63;4422979;32;32692;-85
2022/08/06 05:03:42;;;;;;;4.20;3.78;;;;;;;25.06;48.24;99615.81;4423236;32;33524;-84
2022/08/06 05:06:48;;;;;;;6.72;3.90;;;;;;;25.01;48.19;99621.69;4416284;32;32995;-84
2022/08/06 05:09:24;;;;;;;4.60;3.30;;;;;;;25.40;48.05;99621.13;4435532;32;34010;-85
2022/08/06 05:12:19;;;;;;;3.50;3.20;;;;;;;25.67;44.15;99620.00;4423401;32;33288;-85
2022/08/06 05:15:07;;;;;;;7.05;3.92;;;;;;;25.56;43.74;99628.44;4421888;32;33082;-85
2022/08/06 05:17:41;;;;;;;5.40;3.17;;;;;;;25.58;43.33;99631.81;4409902;32;33761;-84
2022/08/06 05:20:17;;;;;;;7.57;3.67;;;;;;;25.85;42.96;99626.13;4430751;32;33605;-85
2022/08/06 05:23:20;;;;;;;5.03;3.97;;;;;;;25.95;44.05;99636.78;4411258;32;32806;-85
2022/08/06 05:25:49;;;;;;;4.85;3.50;;;;;;;26.12;42.72;99640.31;4427455;32;33761;-85
2022/08/06 05:28:23;;;;;;;7.70;3.30;;;;;;;26.20;42.32;99630.31;4410366;32;32865;-85
2022/08/06 05:30:54;;;;;;;7.57;3.67;;;;;;;26.47;42.02;99629.09;4423132;32;34428;-85
2022/08/06 05:33:36;;;;;;;3.90;3.50;;;;;;;26.63;43.39;99630.91;4423088;32;33800;-85
2022/08/06 05:36:11;;;;;;;5.70;3.15;;;;;;;26.98;42.50;99631.47;4423057;32;32976;-85
2022/08/06 05:38:48;;;;;;;3.95;3.35;;;;;;;26.93;42.05;99633.88;4422505;32;33733;-85
2022/08/06 05:41:28;;;;;;;3.85;3.45;;;;;;;27.31;42.26;99635.72;4411717;32;32899;-85
2022/08/06 05:44:05;;;;;;;3.95;3.65;;;;;;;27.18;43.36;99631.91;4424090;32;34522;-85
2022/08/06 05:46:47;;;;;;;6.20;4.10;;;;;;;27.31;43.91;99643.84;4421339;32;33462;-85
2022/08/06 05:49:26;;;;;;;6.10;3.87;;;;;;;27.60;43.46;99642.31;4424979;32;33379;-85
2022/08/06 05:52:18;;;;;;;5.18;3.22;;;;;;;27.67;43.75;99636.97;4427174;32;32513;-85
2022/08/06 05:54:51;;;;;;;5.20;3.37;;;;;;;27.91;42.97;99638.69;4428434;32;32804;-85
2022/08/06 05:57:54;;;;;;;7.50;3.50;;;;;;;27.80;42.98;99631.84;4424094;32;33306;-84
2022/08/06 06:00:26;;;;;;;3.87;3.37;;;;;;;28.14;42.92;99628.63;4424093;32;33150;-85
2022/08/06 06:03:15;;;;;;;4.57;3.30;;;;;;;28.49;41.81;99631.72;4426445;32;34058;-85
2022/08/06 06:05:58;;;;;;;4.72;3.67;;;;;;;28.93;41.74;99633.56;4413912;32;33753;-85
2022/08/06 06:08:41;;;;;;;4.35;3.95;;;;;;;28.86;41.19;99638.06;4426656;32;33393;-85
2022/08/06 06:11:29;;;;;;;4.75;3.37;;;;;;;28.88;41.57;99626.00;4426765;32;33557;-85
2022/08/06 06:14:27;;;;;;;5.68;3.22;;;;;;;28.65;41.52;99625.25;4414006;32;34470;-85
2022/08/06 06:17:21;;;;;;;5.07;3.25;;;;;;;28.83;40.86;99623.84;4437670;32;33931;-84
2022/08/06 06:20:22;;;;;;;3.35;3.05;;;;;;;29.09;40.26;99628.78;4436755;32;34062;-85
2022/08/06 06:23:16;;;;;;;11.85;3.28;;;;;;;29.39;38.21;99628.72;4423443;32;33416;-85
2022/08/06 06:26:10;;;;;;;8.32;3.78;;;;;;;29.85;36.52;99631.06;4424806;32;33721;-84
2022/08/06 06:29:12;;;;;;;14.25;3.58;;;;;;;29.64;37.30;99637.38;4434951;32;33726;-85
2022/08/06 06:32:10;;;;;;;12.02;3.22;;;;;;;29.64;35.46;99631.94;4436249;32;33407;-84
2022/08/06 06:35:06;;;;;;;3.78;2.85;;;;;;;29.53;35.13;99633.25;4425312;32;34556;-85
2022/08/06 06:37:54;;;;;;;7.45;3.05;;;;;;;30.15;33.99;99639.97;4424046;32;33342;-85
2022/08/06 06:40:31;;;;;;;5.03;3.12;;;;;;;30.40;34.55;99642.22;4422497;32;34469;-85
2022/08/06 06:43:09;;;;;;;4.07;2.95;;;;;;;30.09;34.33;99643.41;4423835;32;32985;-85
2022/08/06 06:46:19;;;;;;;5.78;3.30;;;;;;;30.08;34.12;99647.19;4422000;32;34289;-84
2022/08/06 06:49:41;;;;;;;4.10;3.25;;;;;;;30.35;34.08;99654.56;4427820;32;32569;-84
2022/08/06 06:52:42;;;;;;;9.93;3.33;;;;;;;30.54;33.54;99649.44;4426788;32;32958;-85
2022/08/06 06:55:19;;;;;;;4.32;3.58;;;;;;;30.98;33.85;99646.34;4428640;32;34247;-85
2022/08/06 06:58:57;;;;;;;4.85;4.00;;;;;;;31.18;33.24;99640.97;4424818;32;34020;-85
2022/08/06 07:01:35;;;;;;;5.57;3.30;;;;;;;31.36;33.22;99646.72;4437626;32;33729;-84
2022/08/06 07:04:08;;;;;;;5.70;3.50;;;;;;;31.50;33.15;99653.06;4410222;32;32342;-85
2022/08/06 07:06:38;;;;;;;5.68;3.75;;;;;;;31.33;33.26;99647.16;4424510;32;33022;-85
2022/08/06 07:09:18;;;;;;;5.03;3.12;;;;;;;31.35;33.24;99639.59;4424290;32;33525;-84
2022/08/06 07:12:09;;;;;;;8.02;3.97;;;;;;;31.24;33.94;99656.53;4405049;32;34100;-84
2022/08/06 07:14:50;;;;;;;6.60;4.05;;;;;;;31.57;32.39;99651.22;4424686;32;33492;-85
2022/08/06 07:17:31;;;;;;;9.57;4.32;;;;;;;31.55;32.93;99647.84;4423657;32;33820;-85
2022/08/06 07:20:30;;;;;;;5.43;4.03;;;;;;;31.73;32.08;99640.94;4434626;32;34528;-84
2022/08/06 07:23:01;;;;;;;5.82;3.75;;;;;;;31.41;32.14;99645.28;4422350;32;33348;-84
2022/08/06 07:25:50;;;;;;;5.65;3.65;;;;;;;31.46;32.13;99650.97;4426403;32;34486;-85
2022/08/06 07:28:28;;;;;;;9.15;3.83;;;;;;;31.55;32.78;99657.91;4424193;32;34426;-85
2022/08/06 07:31:03;;;;;;;4.20;3.28;;;;;;;31.59;31.96;99642.81;4420723;32;33140;-85
2022/08/06 07:33:42;;;;;;;4.37;3.97;;;;;;;31.56;32.92;99652.22;4411463;32;33821;-85
2022/08/06 07:36:32;;;;;;;4.68;3.37;;;;;;;31.58;32.78;99652.03;4408054;32;32841;-84
2022/08/06 07:39:10;;;;;;;5.60;3.80;;;;;;;31.13;33.48;99657.09;4417467;32;32680;-85
2022/08/06 07:41:45;;;;;;;4.32;3.87;;;;;;;31.69;32.68;99665.06;4421228;32;34365;-85
2022/08/06 07:44:37;;;;;;;4.55;4.12;;;;;;;31.93;30.98;99666.41;4423325;32;33205;-85
2022/08/06 07:47:42;;;;;;;8.75;3.80;;;;;;;32.32;31.36;99664.72;4425007;32;34048;-85
2022/08/06 07:50:24;;;;;;;8.63;3.90;;;;;;;32.33;31.55;99664.53;4423699;32;33317;-85
2022/08/06 07:52:58;;;;;;;11.60;3.85;;;;;;;32.35;31.60;99665.13;4423442;32;33091;-85
2022/08/06 07:55:31;;;;;;;5.90;3.22;;;;;;;32.30;32.00;99664.94;4411128;32;32711;-85
2022/08/06 07:58:14;;;;;;;3.83;3.47;;;;;;;32.32;30.90;99665.56;4423451;32;33307;-85
2022/08/06 08:00:44;;;;;;;4.25;3.60;;;;;;;32.59;31.42;99654.62;4403197;32;31534;-85
2022/08/06 08:06:32;;;;;;;8.63;3.62;;;;;;;32.83;30.69;99661.28;4427521;32;33977;-85
2022/08/06 08:09:16;;;;;;;10.00;4.15;;;;;;;32.84;30.23;99663.81;4435452;32;33940;-85
2022/08/06 08:11:57;;;;;;;6.55;3.30;;;;;;;32.85;30.56;99660.03;4419273;32;33505;-85
2022/08/06 08:14:50;;;;;;;3.78;3.42;;;;;;;33.15;30.79;99665.00;4410895;32;33595;-85
2022/08/06 08:17:28;;;;;;;5.85;3.47;;;;;;;33.27;30.32;99667.88;4423572;32;34579;-84
2022/08/06 08:20:07;;;;;;;6.12;3.45;;;;;;;33.45;30.13;99659.81;4435518;32;33941;-85
2022/08/06 08:22:44;;;;;;;6.70;3.47;;;;;;;33.18;30.49;99659.06;4424072;32;32969;-85
2022/08/06 08:25:20;;;;;;;3.95;3.58;;;;;;;33.44;29.15;99652.66;4434037;32;33647;-85
2022/08/06 08:28:10;;;;;;;4.10;3.50;;;;;;;33.34;29.42;99655.03;4400842;32;33402;-85
2022/08/06 08:30:53;;;;;;;4.47;4.07;;;;;;;33.77;29.58;99657.94;4422521;32;34009;-85
2022/08/06 08:33:23;;;;;;;4.55;3.87;;;;;;;33.70;29.61;99656.28;4435234;32;31887;-85
2022/08/06 08:36:00;;;;;;;10.15;3.40;;;;;;;34.06;29.84;99661.12;4433329;32;33523;-85
2022/08/06 08:38:34;;;;;;;6.15;3.55;;;;;;;34.14;28.47;99655.38;4410447;32;33629;-85
2022/08/06 08:41:13;;;;;;;6.18;4.00;;;;;;;34.00;28.54;99651.91;4422856;32;34096;-85
2022/08/06 08:43:57;;;;;;;4.22;3.83;;;;;;;34.46;28.41;99645.19;4417733;32;32815;-85
2022/08/06 08:46:33;;;;;;;;;;;;;;;34.73;27.77;99648.47;4423827;32;32923;-85
2022/08/06 08:49:34;;;;;;;4.30;3.03;;;;;;;34.76;27.32;99649.94;4424274;32;35004;-85
2022/08/06 08:52:16;;;;;;;4.00;3.60;;;;;;;35.05;26.84;99645.63;4422516;32;33611;-85
2022/08/06 08:54:55;;;;;;;3.22;3.00;;;;;;;35.29;27.78;99655.63;4435273;32;33296;-85
2022/08/06 08:57:26;;;;;;;11.15;3.50;;;;;;;35.02;26.10;99652.38;4424237;32;32327;-85
2022/08/06 09:00:15;;;;;;;3.45;2.87;;;;;;;35.38;25.81;99654.25;4415798;32;33692;-84
2022/08/06 09:08:20;;;;;;;4.35;3.53;;;;;;;35.77;26.34;99645.69;4435507;32;35327;-85
2022/08/06 09:11:09;;;;;;;3.47;3.17;;;;;;;35.74;26.08;99646.97;4422655;32;32938;-85
2022/08/06 09:14:01;;;;;;;6.00;3.35;;;;;;;35.46;26.30;99644.84;4414747;32;33676;-85
2022/08/06 09:16:34;;;;;;;4.03;3.37;;;;;;;35.81;25.98;99655.12;4422820;32;32879;-85
2022/08/06 09:19:11;;;;;;;6.82;3.20;;;;;;;35.63;25.98;99645.06;4422661;32;34197;-85
2022/08/06 09:24:24;;;;;;;4.28;3.28;;;;;;;36.10;25.36;99645.19;4427432;32;33085;-85
2022/08/06 09:27:09;;;;;;;3.75;3.08;;;;;;;35.94;25.18;99643.94;4425922;32;33728;-85
2022/08/06 09:30:00;;;;;;;4.87;3.67;;;;;;;36.31;24.20;99641.81;4401942;32;34129;-85
2022/08/06 09:32:49;;;;;;;3.33;2.90;;;;;;;36.54;24.34;99651.19;4426575;32;33584;-85
2022/08/06 09:35:27;;;;;;;3.40;3.10;;;;;;;36.64;23.93;99640.41;4437892;32;33389;-85
2022/08/06 09:38:18;;;;;;;3.37;3.15;;;;;;;36.64;25.26;99638.50;4438246;32;33232;-85
2022/08/06 09:41:11;;;;;;;4.70;3.17;;;;;;;36.85;23.85;99631.53;4424286;32;32464;-85
2022/08/06 09:43:52;;;;;;;3.35;3.03;;;;;;;36.95;23.43;99641.13;4425144;32;34228;-84
2022/08/06 09:46:39;;;;;;;4.10;3.33;;;;;;;36.67;23.55;99638.03;4425465;32;34264;-85
2022/08/06 09:49:12;;;;;;;3.50;3.20;;;;;;;37.02;25.00;99636.28;4411146;32;32140;-85
2022/08/06 09:52:16;;;;;;;3.00;2.77;;;;;;;37.06;23.66;99631.97;4427321;32;33901;-85
2022/08/06 09:54:48;;;;;;;5.45;3.70;;;;;;;37.09;24.23;99637.00;4400493;32;32589;-84
2022/08/06 09:57:25;;;;;;;3.37;3.08;;;;;;;37.16;24.41;99632.19;4419094;32;32420;-85
2022/08/06 10:00:11;;;;;;;3.35;3.05;;;;;;;37.43;24.54;99629.72;4425243;32;33188;-85
2022/08/06 10:02:42;;;;;;;4.40;3.55;;;;;;;37.28;23.38;99629.41;4437005;32;33605;-85
2022/08/06 10:05:19;;;;;;;6.55;3.37;;;;;;;37.23;24.62;99627.37;4425651;32;33480;-85
2022/08/06 10:08:11;;;;;;;3.50;3.15;;;;;;;37.46;23.77;99632.00;4410766;32;33064;-85
2022/08/06 10:10:51;;;;;;;7.55;3.60;;;;;;;37.48;23.53;99629.81;4412398;32;31998;-85
2022/08/06 10:13:26;;;;;;;4.68;3.95;;;;;;;37.55;24.02;99621.38;4424151;32;35161;-85
2022/08/06 10:16:26;;;;;;;3.47;3.17;;;;;;;37.54;23.36;99622.47;4426759;32;34013;-85
2022/08/06 10:19:04;;;;;;;5.60;3.33;;;;;;;37.65;23.43;99624.31;4424488;32;33209;-85
2022/08/06 10:21:46;;;;;;;3.10;2.90;;;;;;;37.71;22.79;99626.09;4426299;32;33457;-85
2022/08/06 10:24:18;;;;;;;;;;;;;;;37.65;22.81;99627.94;4425087;32;33381;-85
2022/08/06 10:27:16;;;;;;;5.10;3.28;;;;;;;38.17;22.78;99622.22;4425564;32;33960;-85
2022/08/06 10:29:53;;;;;;;5.75;3.60;;;;;;;37.92;24.07;99621.78;4423744;32;33834;-85
2022/08/06 10:32:38;;;;;;;4.32;3.95;;;;;;;38.14;23.84;99616.34;4423968;32;33995;-85
2022/08/06 10:35:15;;;;;;;7.65;3.70;;;;;;;38.06;23.39;99625.03;4420423;32;33690;-85
2022/08/06 10:37:49;;;;;;;4.30;3.25;;;;;;;37.99;23.24;99624.38;4407431;32;33367;-85
2022/08/06 10:40:20;;;;;;;5.28;4.28;;;;;;;37.87;22.94;99617.00;4404407;32;32850;-85
2022/08/06 10:43:04;;;;;;;10.18;3.83;;;;;;;37.83;22.80;99609.47;4408653;32;33756;-85
2022/08/06 10:45:36;;;;;;;6.40;3.85;;;;;;;38.16;22.49;99619.69;4415806;32;32531;-85
2022/08/06 10:48:17;;;;;;;4.05;3.42;;;;;;;38.57;22.67;99620.31;4409742;32;34409;-85
2022/08/06 10:51:10;;;;;;;4.12;3.72;;;;;;;38.80;22.33;99619.28;4411630;32;34261;-85
2022/08/06 10:53:43;;;;;;;3.42;3.10;;;;;;;38.72;21.82;99609.47;4407861;32;32299;-85
2022/08/06 10:56:31;;;;;;;4.15;3.78;;;;;;;38.46;22.53;99621.25;4410120;32;32309;-85
2022/08/06 10:59:13;;;;;;;4.90;3.28;;;;;;;38.77;23.04;99614.28;4395824;32;32791;-85
2022/08/06 11:01:49;;;;;;;;;;;;;;;38.65;22.86;99611.63;4402815;32;32670;-85
2022/08/06 11:04:49;;;;;;;5.00;3.90;;;;;;;38.98;22.13;99616.19;4420278;32;31958;-85
2022/08/06 11:07:25;;;;;;;5.60;4.28;;;;;;;38.59;22.61;99616.19;4402140;32;32931;-85
2022/08/06 11:10:22;;;;;;;4.12;3.72;;;;;;;38.60;22.85;99608.75;4421555;32;33483;-85
2022/08/06 11:13:21;;;;;;;4.75;3.83;;;;;;;38.21;23.11;99600.47;4415324;32;32891;-85
2022/08/06 11:16:05;;;;;;;5.18;3.42;;;;;;;38.78;23.00;99607.66;4412264;32;33014;-85
2022/08/06 11:18:36;;;;;;;6.35;4.22;;;;;;;38.57;21.55;99612.87;4415350;32;34025;-85
2022/08/06 11:21:19;;;;;;;6.90;4.20;;;;;;;38.39;24.27;99607.66;4422347;32;34636;-85
2022/08/06 11:24:00;;;;;;;7.45;4.30;;;;;;;38.57;23.93;99607.34;4420665;32;34677;-85
2022/08/06 11:26:36;;;;;;;9.50;4.07;;;;;;;38.37;23.95;99605.16;4413899;32;34384;-85
2022/08/06 11:29:19;;;;;;;5.18;4.57;;;;;;;38.54;23.91;99596.00;4408469;32;33886;-85
2022/08/06 11:32:52;;;;;;;5.43;4.40;;;;;;;38.64;23.85;99604.41;4421088;32;34714;-85
2022/08/06 11:35:34;;;;;;;4.97;3.87;;;;;;;38.70;23.63;99600.62;4413910;32;34257;-85
2022/08/06 11:38:47;;;;;;;5.30;4.00;;;;;;;38.70;23.74;99588.78;4425293;32;33050;-85
2022/08/06 11:41:33;;;;;;;4.47;4.15;;;;;;;38.87;23.64;99593.12;4434444;32;33822;-85
2022/08/06 11:44:23;;;;;;;9.57;4.50;;;;;;;38.87;23.64;99590.37;4425329;32;34313;-85
2022/08/06 11:47:10;;;;;;;4.22;3.92;;;;;;;38.76;24.09;99591.34;4423777;32;33517;-85
2022/08/06 11:49:52;;;;;;;5.20;4.70;;;;;;;38.73;24.29;99591.81;4420127;32;32930;-85
2022/08/06 11:52:34;;;;;;;5.90;4.03;;;;;;;38.26;25.41;99600.53;4434507;32;33238;-86
2022/08/06 11:55:13;;;;;;;7.32;4.37;;;;;;;38.50;24.67;99592.06;4437388;32;33700;-85
2022/08/06 11:58:20;;;;;;;5.68;4.00;;;;;;;38.36;24.89;99597.13;4421920;32;33585;-85
2022/08/06 12:01:00;;;;;;;4.70;4.10;;;;;;;38.39;25.07;99597.44;4435258;32;33515;-85
2022/08/06 12:03:52;;;;;;;5.07;4.62;;;;;;;38.19;25.45;99597.13;4429667;32;33484;-85
2022/08/06 12:06:25;;;;;;;6.37;4.40;;;;;;;37.92;25.40;99600.56;4423068;32;33958;-85
2022/08/06 12:09:11;;;;;;;11.12;4.43;;;;;;;37.87;26.08;99606.00;4424097;32;33783;-85
2022/08/06 12:12:28;;;;;;;7.95;5.22;;;;;;;37.79;26.37;99608.28;4424696;32;33521;-85
2022/08/06 12:15:23;;;;;;;7.07;4.85;;;;;;;38.03;25.96;99609.84;4436834;32;34191;-85
2022/08/06 12:18:10;;;;;;;11.70;5.43;;;;;;;37.92;25.87;99603.31;4435945;32;33590;-85
2022/08/06 12:20:58;;;;;;;7.70;5.10;;;;;;;37.70;26.78;99604.28;4428491;32;34423;-85
2022/08/06 12:23:28;;;;;;;5.68;5.10;;;;;;;37.81;26.32;99606.97;4423077;32;34406;-85
2022/08/06 12:26:24;;;;;;;5.72;5.15;;;;;;;37.71;26.56;99606.81;4415484;32;34579;-85
2022/08/06 12:29:09;;;;;;;8.02;5.37;;;;;;;37.68;27.38;99613.63;4425399;32;33788;-85
2022/08/06 12:31:39;;;;;;;13.18;5.37;;;;;;;37.47;26.72;99619.03;4434692;32;33574;-85
2022/08/06 12:34:24;;;;;;;6.30;5.35;;;;;;;37.05;27.21;99620.13;4422514;32;33082;-85
2022/08/06 12:36:56;;;;;;;8.60;6.00;;;;;;;37.22;27.16;99606.41;4420394;32;32769;-85
2022/08/06 12:40:23;;;;;;;11.57;5.53;;;;;;;37.19;27.28;99614.34;4406091;32;32408;-85
2022/08/06 12:42:25;;;;;;;6.80;5.85;;;;;;;37.02;27.42;99625.28;4410462;32;33920;-85
2022/08/06 12:45:23;;;;;;;6.55;5.12;;;;;;;36.89;27.74;99621.72;4409836;32;32593;-85
2022/08/06 12:48:17;;;;;;;8.23;4.95;;;;;;;36.66;27.71;99628.09;4407201;32;33680;-85
2022/08/06 12:51:08;;;;;;;8.55;5.57;;;;;;;36.65;27.62;99626.44;4395806;32;33628;-85
2022/08/06 12:53:54;;;;;;;7.47;5.05;;;;;;;37.08;27.41;99632.56;4420489;32;33647;-85
2022/08/06 12:56:26;;;;;;;7.55;5.70;;;;;;;37.22;27.33;99620.19;4418002;32;33684;-85
2022/08/06 12:59:03;;;;;;;5.70;5.18;;;;;;;36.75;28.72;99624.97;4408554;32;34224;-85